METAR AND TAF INFORMATION
METAR FOR KEGE
KEGE 130856Z AUTO 15007KT 10SM OVC100 08/M03 A3015 RMK AO2 SLP113 6//// T00831033 53005 PNO $
KEGE 130756Z AUTO 03005KT 10SM CLR 09/M04 A3013 RMK AO2 SLP108 T00891039 PNO $
KEGE 130656Z AUTO 13008KT 080V160 10SM BKN080 OVC095 09/M03 A3013 RMK AO2 SLP108 T00891028 PNO $
KEGE 130520Z 1306/1406 10006KT P6SM SCT090 SCT200
FM131600 23007KT P6SM FEW080 FEW250
FM131800 25010G20KT P6SM SCT070 SCT250
FM140100 23008KT P6SM FEW080 FEW250
FM140300 14006KT P6SM FEW090 FEW250

 AIRPORT MAP

 RUNWAY INFORMATION
Runway 07 Runway length 9000 ft Runway width 150 ft
Runway elevation 6461 ft Runway displaced threshold 0 ft Runway heading 82
Runway 25 Runway length 9000 ft Runway width 150 ft
Runway elevation 6547 ft Runway displaced threshold 1000 ft Runway heading 262
Runway 08 Runway length 5013 ft Runway width 60 ft
Runway elevation 0 ft Runway displaced threshold 0 ft Runway heading 90
Runway 26 Runway length 5013 ft Runway width 60 ft
Runway elevation 0 ft Runway displaced threshold 0 ft Runway heading 270

 AIRPORT FREQUENCIES
Type ATIS Name ATIS Frequency 135.575 MHZ
Type AWOS Name AWOS 3 Frequency 135.575 MHZ
Type CNTR Name DENVER CNT Frequency 128.65 MHZ
Type CTAF Name CTAF Frequency 119.8 MHZ
Type GCCD Name GND/CLNC D Frequency 121.8 MHZ
Type MISC Name EAGLES NES Frequency 41.75 MHZ
Type RDO Name DENVER RDO Frequency 122.2 MHZ
Type TWR Name TWR Frequency 119.8 MHZ

 AIRPORT NEAR NAVIGATION AIDS
Type VOR-DME Name Snow Frequency 109200 KHZ

-